createdAt,value
2017-08-06T00:01:57.069Z,19.30
2017-08-06T00:04:25.330Z,18.97
2017-08-06T00:06:53.697Z,18.93
2017-08-06T00:09:21.447Z,18.93
2017-08-06T00:11:48.970Z,14.60
2017-08-06T00:14:17.232Z,14.00
2017-08-06T00:16:44.766Z,15.53
2017-08-06T00:19:13.006Z,17.63
2017-08-06T00:21:40.573Z,15.03
2017-08-06T00:24:08.850Z,17.83
2017-08-06T00:26:36.338Z,12.70
2017-08-06T00:29:03.819Z,16.80
2017-08-06T00:31:31.375Z,14.53
2017-08-06T00:33:59.116Z,19.27
2017-08-06T00:36:27.375Z,14.50
2017-08-06T00:38:55.633Z,22.40
2017-08-06T00:41:26.963Z,17.43
2017-08-06T00:43:55.203Z,18.97
2017-08-06T00:46:22.778Z,16.57
2017-08-06T00:48:50.514Z,20.67
2017-08-06T00:51:18.762Z,17.23
2017-08-06T00:53:46.238Z,17.10
2017-08-06T00:56:13.727Z,17.30
2017-08-06T00:58:41.203Z,18.10
2017-08-06T01:01:09.462Z,16.30
2017-08-06T01:03:37.826Z,23.73
2017-08-06T01:06:06.087Z,19.53
2017-08-06T01:08:34.327Z,19.83
2017-08-06T01:11:01.899Z,18.40
2017-08-06T01:13:29.422Z,13.30
2017-08-06T01:15:57.686Z,15.53
2017-08-06T01:18:26.151Z,18.30
2017-08-06T01:20:54.415Z,15.17
2017-08-06T01:23:21.967Z,18.80
2017-08-06T01:25:49.502Z,18.83
2017-08-06T01:28:17.758Z,19.97
2017-08-06T01:30:46.042Z,17.27
2017-08-06T01:33:13.570Z,17.20
2017-08-06T01:35:41.070Z,13.63
2017-08-06T01:38:08.542Z,14.60
2017-08-06T01:40:36.781Z,14.10
2017-08-06T01:43:04.350Z,15.53
2017-08-06T01:45:32.619Z,15.43
2017-08-06T01:48:00.155Z,16.20
2017-08-06T01:50:28.515Z,16.10
2017-08-06T01:52:56.758Z,17.00
2017-08-06T01:55:25.047Z,13.23
2017-08-06T01:57:52.542Z,12.87
2017-08-06T02:00:20.486Z,13.17
2017-08-06T02:02:48.098Z,17.33
2017-08-06T02:05:15.623Z,16.50
2017-08-06T02:07:43.881Z,14.17
2017-08-06T02:10:12.243Z,13.03
2017-08-06T02:12:39.722Z,16.10
2017-08-06T02:15:07.957Z,19.60
2017-08-06T02:17:35.522Z,15.67
2017-08-06T02:20:03.761Z,15.70
2017-08-06T02:22:31.326Z,14.90
2017-08-06T02:24:59.690Z,16.67
2017-08-06T02:27:27.927Z,15.33
2017-08-06T02:29:55.495Z,15.73
2017-08-06T02:32:23.766Z,19.50
2017-08-06T02:34:52.002Z,14.27
2017-08-06T02:37:20.293Z,18.40
2017-08-06T02:39:47.823Z,15.10
2017-08-06T02:42:15.365Z,18.57
2017-08-06T02:44:43.623Z,14.67
2017-08-06T02:47:12.086Z,20.40
2017-08-06T02:49:40.359Z,14.60
2017-08-06T02:52:07.887Z,14.20
2017-08-06T02:54:35.434Z,13.77
2017-08-06T02:57:03.762Z,16.90
2017-08-06T02:59:31.340Z,18.20
2017-08-06T03:01:59.602Z,18.00
2017-08-06T03:04:28.165Z,16.73
2017-08-06T03:06:56.408Z,15.30
2017-08-06T03:09:23.971Z,14.70
2017-08-06T03:11:51.549Z,17.93
2017-08-06T03:14:19.793Z,15.27
2017-08-06T03:16:47.359Z,13.70
2017-08-06T03:19:15.714Z,13.67
2017-08-06T03:21:44.181Z,14.40
2017-08-06T03:24:12.418Z,15.60
2017-08-06T03:26:39.889Z,19.90
2017-08-06T03:29:07.426Z,25.80
2017-08-06T03:31:35.687Z,15.70
2017-08-06T03:34:03.942Z,15.70
2017-08-06T03:36:32.319Z,13.83
2017-08-06T03:38:59.850Z,15.00
2017-08-06T03:41:28.110Z,18.60
2017-08-06T03:43:55.858Z,14.70
2017-08-06T03:46:23.347Z,20.97
2017-08-06T03:48:50.822Z,13.90
2017-08-06T03:51:18.394Z,31.43
2017-08-06T03:53:45.867Z,15.43
2017-08-06T03:56:13.343Z,17.80
2017-08-06T03:58:40.831Z,20.73
2017-08-06T04:01:08.362Z,18.30
2017-08-06T04:03:36.926Z,17.27
2017-08-06T04:06:05.190Z,19.70
2017-08-06T04:08:32.732Z,20.17
2017-08-06T04:11:00.998Z,18.40
2017-08-06T04:13:28.479Z,22.60
2017-08-06T04:15:55.958Z,20.30
2017-08-06T04:18:23.458Z,21.70
2017-08-06T04:20:51.127Z,22.83
2017-08-06T04:23:18.732Z,21.90
2017-08-06T04:25:46.207Z,21.95
2017-08-06T04:28:14.693Z,20.17
2017-08-06T04:30:42.230Z,20.35
2017-08-06T04:33:10.474Z,19.62
2017-08-06T04:35:38.041Z,19.80
2017-08-06T04:38:06.302Z,19.97
2017-08-06T04:40:34.570Z,26.93
2017-08-06T04:43:02.310Z,20.77
2017-08-06T04:45:30.588Z,21.20
2017-08-06T04:47:58.118Z,19.70
2017-08-06T04:50:25.658Z,21.37
2017-08-06T04:52:53.922Z,24.80
2017-08-06T04:55:21.400Z,20.13
2017-08-06T04:57:49.006Z,18.70
2017-08-06T05:00:17.370Z,22.07
2017-08-06T05:02:45.630Z,21.80
2017-08-06T05:05:14.094Z,28.03
2017-08-06T05:07:42.354Z,21.53
2017-08-06T05:10:10.598Z,21.03
2017-08-06T05:12:38.962Z,23.83
2017-08-06T05:15:07.206Z,21.10
2017-08-06T05:17:35.482Z,20.27
2017-08-06T05:20:03.946Z,21.77
2017-08-06T05:22:32.190Z,20.73
2017-08-06T05:24:59.750Z,23.67
2017-08-06T05:27:28.218Z,25.97
2017-08-06T05:29:55.696Z,29.20
2017-08-06T05:32:23.176Z,33.00
2017-08-06T05:34:50.686Z,23.40
2017-08-06T05:37:18.185Z,26.13
2017-08-06T05:39:45.678Z,20.30
2017-08-06T05:42:13.375Z,21.57
2017-08-06T05:44:41.616Z,25.13
2017-08-06T05:47:09.082Z,22.37
2017-08-06T05:49:36.682Z,21.90
2017-08-06T05:52:04.154Z,24.23
2017-08-06T05:54:32.390Z,21.00
2017-08-06T05:56:59.963Z,22.40
2017-08-06T05:59:28.354Z,18.90
2017-08-06T06:01:55.846Z,22.23
2017-08-06T06:04:23.329Z,26.50
2017-08-06T06:06:51.606Z,23.27
2017-08-06T06:09:19.122Z,21.27
2017-08-06T06:11:47.362Z,23.90
2017-08-06T06:14:14.930Z,16.77
2017-08-06T06:16:43.166Z,21.57
2017-08-06T06:19:10.641Z,19.60
2017-08-06T06:21:38.130Z,18.80
2017-08-06T06:24:05.720Z,22.33
2017-08-06T06:26:33.958Z,15.00
2017-08-06T06:29:01.434Z,20.60
2017-08-06T06:31:28.966Z,15.63
2017-08-06T06:33:57.431Z,18.50
2017-08-06T06:36:25.669Z,18.97
2017-08-06T06:38:53.927Z,17.30
2017-08-06T06:41:22.320Z,22.70
2017-08-06T06:43:49.857Z,18.00
2017-08-06T06:46:18.094Z,18.43
2017-08-06T06:48:45.867Z,19.40
2017-08-06T06:51:14.106Z,14.77
2017-08-06T06:53:41.676Z,14.97
2017-08-06T06:56:09.518Z,16.17
2017-08-06T06:58:37.755Z,20.00
2017-08-06T07:01:05.227Z,12.90
2017-08-06T07:03:32.766Z,11.07
2017-08-06T07:06:01.027Z,12.00
2017-08-06T07:08:29.265Z,11.60
2017-08-06T07:10:56.831Z,13.10
2017-08-06T07:13:24.524Z,10.33
2017-08-06T07:15:52.791Z,13.67
2017-08-06T07:18:20.326Z,13.03
2017-08-06T07:20:48.078Z,10.67
2017-08-06T07:23:16.338Z,9.33
2017-08-06T07:25:44.566Z,9.70
2017-08-06T07:28:12.051Z,10.37
2017-08-06T07:30:39.513Z,8.03
2017-08-06T07:33:07.003Z,13.87
2017-08-06T07:35:34.558Z,8.73
2017-08-06T07:38:02.791Z,12.13
2017-08-06T07:40:30.258Z,9.77
2017-08-06T07:42:58.732Z,10.70
2017-08-06T07:45:26.974Z,8.03
2017-08-06T07:47:54.679Z,7.20
2017-08-06T07:50:22.383Z,7.40
2017-08-06T07:52:50.622Z,12.50
2017-08-06T07:55:18.114Z,6.67
2017-08-06T07:57:45.784Z,6.37
2017-08-06T08:00:13.253Z,7.80
2017-08-06T08:02:40.806Z,7.67
2017-08-06T08:05:09.187Z,7.00
2017-08-06T08:07:37.442Z,6.83
2017-08-06T08:10:05.682Z,8.17
2017-08-06T08:12:33.207Z,6.70
2017-08-06T08:15:01.439Z,4.50
2017-08-06T08:17:29.012Z,5.20
2017-08-06T08:19:57.366Z,6.60
2017-08-06T08:22:25.611Z,4.73
2017-08-06T08:24:53.086Z,4.30
2017-08-06T08:27:20.618Z,4.40
2017-08-06T08:29:49.075Z,5.80
2017-08-06T08:32:17.307Z,6.23
2017-08-06T08:34:44.778Z,5.30
2017-08-06T08:37:13.058Z,7.27
2017-08-06T08:39:40.523Z,5.00
2017-08-06T08:42:08.021Z,5.30
2017-08-06T08:44:36.394Z,3.27
2017-08-06T08:47:03.866Z,10.30
2017-08-06T08:49:31.353Z,9.13
2017-08-06T08:51:58.910Z,5.97
2017-08-06T08:54:27.154Z,6.57
2017-08-06T08:56:54.627Z,5.80
2017-08-06T08:59:22.121Z,5.20
2017-08-06T09:01:49.586Z,7.40
2017-08-06T09:04:17.147Z,6.10
2017-08-06T09:06:45.379Z,3.70
2017-08-06T09:09:12.951Z,4.73
2017-08-06T09:11:41.211Z,4.23
2017-08-06T09:14:08.773Z,6.70
2017-08-06T09:16:36.289Z,2.80
2017-08-06T09:19:04.522Z,4.63
2017-08-06T09:21:32.018Z,3.50
2017-08-06T09:23:59.534Z,4.07
2017-08-06T09:26:27.770Z,3.97
2017-08-06T09:28:55.451Z,5.10
2017-08-06T09:31:23.012Z,2.87
2017-08-06T09:33:50.498Z,3.70
2017-08-06T09:36:17.982Z,4.10
2017-08-06T09:38:45.522Z,2.93
2017-08-06T09:41:12.985Z,8.50
2017-08-06T09:43:40.502Z,3.60
2017-08-06T09:46:07.974Z,2.97
2017-08-06T09:48:35.449Z,2.60
2017-08-06T09:51:02.969Z,2.90
2017-08-06T09:53:30.427Z,2.93
2017-08-06T09:55:58.840Z,5.57
2017-08-06T09:58:26.338Z,3.77
2017-08-06T10:00:53.921Z,6.03
2017-08-06T10:03:22.164Z,2.47
2017-08-06T10:05:49.728Z,3.93
2017-08-06T10:08:17.983Z,3.03
2017-08-06T10:10:46.210Z,5.03
2017-08-06T10:13:13.680Z,11.90
2017-08-06T10:15:41.254Z,7.93
2017-08-06T10:18:09.513Z,3.50
2017-08-06T10:20:37.778Z,2.90
2017-08-06T10:23:06.215Z,4.70
2017-08-06T10:25:33.683Z,5.30
2017-08-06T10:28:01.942Z,3.00
2017-08-06T10:30:29.486Z,4.37
2017-08-06T10:32:57.756Z,7.63
2017-08-06T10:35:25.233Z,3.63
2017-08-06T10:37:52.734Z,6.20
2017-08-06T10:40:20.989Z,9.10
2017-08-06T10:42:49.255Z,7.87
2017-08-06T10:45:17.477Z,4.30
2017-08-06T10:47:44.982Z,2.70
2017-08-06T10:50:12.443Z,6.73
2017-08-06T10:52:39.898Z,2.90
2017-08-06T10:55:07.578Z,6.90
2017-08-06T10:57:35.806Z,4.23
2017-08-06T11:00:03.274Z,4.67
2017-08-06T11:02:31.746Z,4.60
2017-08-06T11:04:59.970Z,3.80
2017-08-06T11:07:27.463Z,4.40
2017-08-06T11:09:55.000Z,2.83
2017-08-06T11:12:22.578Z,10.43
2017-08-06T11:14:50.310Z,6.33
2017-08-06T11:17:18.580Z,2.40
2017-08-06T11:19:46.114Z,4.13
2017-08-06T11:22:14.686Z,4.77
2017-08-06T11:24:42.918Z,4.50
2017-08-06T11:27:10.486Z,5.30
2017-08-06T11:29:38.738Z,4.20
2017-08-06T11:32:06.998Z,3.30
2017-08-06T11:34:35.230Z,2.20
2017-08-06T11:37:02.910Z,2.70
2017-08-06T11:39:31.134Z,2.60
2017-08-06T11:41:58.624Z,7.20
2017-08-06T11:44:26.102Z,2.17
2017-08-06T11:46:53.601Z,1.67
2017-08-06T11:49:21.966Z,2.93
2017-08-06T11:51:49.510Z,4.60
2017-08-06T11:54:16.982Z,2.20
2017-08-06T11:56:44.446Z,3.47
2017-08-06T11:59:12.134Z,3.97
2017-08-06T12:01:40.367Z,2.37
2017-08-06T12:04:07.930Z,2.80
2017-08-06T12:06:36.243Z,2.00
2017-08-06T12:09:03.697Z,3.70
2017-08-06T12:11:31.270Z,5.13
2017-08-06T12:13:59.503Z,3.27
2017-08-06T12:16:27.076Z,2.70
2017-08-06T12:18:55.538Z,4.90
2017-08-06T12:21:23.786Z,2.50
2017-08-06T12:23:51.248Z,2.30
2017-08-06T12:26:19.539Z,3.23
2017-08-06T12:28:47.050Z,2.43
2017-08-06T12:31:15.410Z,2.50
2017-08-06T12:33:43.981Z,2.33
2017-08-06T12:36:12.237Z,2.20
2017-08-06T12:38:40.473Z,3.63
2017-08-06T12:41:07.971Z,2.90
2017-08-06T12:43:35.482Z,2.63
2017-08-06T12:46:03.714Z,3.20
2017-08-06T12:48:31.382Z,2.13
2017-08-06T12:50:59.613Z,2.13
2017-08-06T12:53:27.091Z,3.10
2017-08-06T12:55:55.493Z,2.17
2017-08-06T12:58:23.146Z,2.13
2017-08-06T13:00:50.618Z,1.90
2017-08-06T13:03:18.406Z,3.40
2017-08-06T13:05:45.938Z,3.50
2017-08-06T13:08:14.171Z,3.23
2017-08-06T13:10:41.818Z,2.93
2017-08-06T13:13:09.285Z,5.73
2017-08-06T13:15:36.777Z,2.63
2017-08-06T13:18:04.814Z,2.30
2017-08-06T13:20:33.047Z,2.30
2017-08-06T13:23:00.523Z,2.27
2017-08-06T13:25:29.002Z,6.90
2017-08-06T13:27:56.546Z,1.97
2017-08-06T13:30:24.178Z,2.10
2017-08-06T13:32:51.763Z,3.30
2017-08-06T13:35:19.294Z,2.27
2017-08-06T13:37:46.810Z,1.80
2017-08-06T13:40:15.175Z,3.67
2017-08-06T13:42:43.398Z,2.27
2017-08-06T13:45:10.867Z,2.00
2017-08-06T13:47:39.330Z,1.90
2017-08-06T13:50:07.597Z,2.57
2017-08-06T13:52:35.859Z,2.40
2017-08-06T13:55:04.324Z,3.53
2017-08-06T13:57:32.551Z,4.23
2017-08-06T14:00:00.123Z,5.40
2017-08-06T14:02:28.525Z,2.80
2017-08-06T14:04:55.998Z,2.10
2017-08-06T14:07:23.475Z,2.80
2017-08-06T14:09:51.742Z,3.00
2017-08-06T14:12:19.250Z,3.20
2017-08-06T14:14:46.886Z,1.80
2017-08-06T14:17:15.134Z,2.10
2017-08-06T14:19:42.689Z,2.40
2017-08-06T14:22:10.922Z,1.97
2017-08-06T14:24:38.382Z,3.10
2017-08-06T14:27:06.860Z,4.07
2017-08-06T14:29:35.122Z,2.27
2017-08-06T14:32:03.341Z,1.93
2017-08-06T14:34:30.914Z,1.80
2017-08-06T14:36:59.142Z,2.73
2017-08-06T14:39:26.830Z,2.43
2017-08-06T14:41:55.077Z,1.80
2017-08-06T14:44:23.446Z,2.90
2017-08-06T14:46:51.805Z,2.23
2017-08-06T14:49:20.086Z,1.90
2017-08-06T14:51:47.618Z,2.77
2017-08-06T14:54:15.979Z,2.57
2017-08-06T14:56:44.337Z,1.63
2017-08-06T14:59:12.571Z,2.17
2017-08-06T15:01:40.246Z,6.00
2017-08-06T15:04:08.470Z,1.97
2017-08-06T15:06:35.935Z,2.83
2017-08-06T15:09:03.491Z,3.00
2017-08-06T15:11:30.954Z,1.60
2017-08-06T15:13:59.230Z,1.83
2017-08-06T15:16:27.491Z,2.00
2017-08-06T15:18:55.747Z,2.20
2017-08-06T15:21:24.206Z,2.20
2017-08-06T15:23:52.466Z,3.53
2017-08-06T15:26:20.699Z,2.43
2017-08-06T15:28:48.270Z,2.27
2017-08-06T15:31:16.534Z,3.97
2017-08-06T15:33:44.790Z,2.00
2017-08-06T15:36:13.155Z,2.80
2017-08-06T15:38:41.414Z,3.17
2017-08-06T15:41:09.648Z,2.63
2017-08-06T15:43:37.417Z,2.60
2017-08-06T15:46:05.683Z,2.20
2017-08-06T15:48:33.948Z,5.30
2017-08-06T15:51:02.322Z,2.50
2017-08-06T15:53:29.856Z,2.97
2017-08-06T15:55:58.083Z,2.20
2017-08-06T15:58:25.658Z,2.37
2017-08-06T16:00:53.904Z,3.20
2017-08-06T16:03:22.139Z,2.50
2017-08-06T16:05:49.625Z,2.20
2017-08-06T16:08:17.163Z,3.07
2017-08-06T16:10:45.414Z,2.57
2017-08-06T16:13:13.143Z,2.20
2017-08-06T16:15:40.706Z,1.70
2017-08-06T16:18:08.166Z,1.93
2017-08-06T16:20:35.671Z,2.47
2017-08-06T16:23:03.210Z,2.83
2017-08-06T16:25:30.679Z,2.33
2017-08-06T16:27:58.198Z,1.90
2017-08-06T16:30:25.741Z,2.90
2017-08-06T16:32:53.982Z,2.50
2017-08-06T16:35:21.473Z,1.90
2017-08-06T16:37:48.933Z,2.10
2017-08-06T16:40:16.429Z,2.17
2017-08-06T16:42:44.706Z,3.53
2017-08-06T16:45:12.173Z,1.63
2017-08-06T16:47:39.670Z,4.00
2017-08-06T16:50:08.130Z,3.57
2017-08-06T16:52:36.398Z,2.17
2017-08-06T16:55:04.626Z,3.50
2017-08-06T16:57:32.126Z,2.00
2017-08-06T16:59:59.650Z,2.23
2017-08-06T17:02:27.198Z,2.03
2017-08-06T17:04:54.941Z,2.83
2017-08-06T17:07:22.418Z,2.83
2017-08-06T17:09:49.915Z,4.27
2017-08-06T17:12:17.398Z,2.60
2017-08-06T17:14:44.865Z,2.80
2017-08-06T17:17:12.470Z,3.40
2017-08-06T17:19:40.742Z,3.10
2017-08-06T17:22:08.273Z,3.67
2017-08-06T17:24:36.634Z,4.97
2017-08-06T17:27:04.858Z,5.33
2017-08-06T17:29:32.327Z,4.87
2017-08-06T17:32:00.706Z,2.50
2017-08-06T17:34:28.962Z,8.20
2017-08-06T17:36:57.246Z,2.20
2017-08-06T17:39:24.966Z,2.90
2017-08-06T17:41:53.199Z,2.37
2017-08-06T17:44:20.662Z,3.00
2017-08-06T17:46:49.034Z,6.53
2017-08-06T17:49:17.294Z,3.03
2017-08-06T17:51:45.555Z,3.80
2017-08-06T17:54:13.832Z,7.47
2017-08-06T17:56:41.291Z,8.87
2017-08-06T17:59:08.754Z,3.30
2017-08-06T18:01:36.234Z,3.80
2017-08-06T18:04:04.602Z,5.33
2017-08-06T18:06:32.835Z,3.33
2017-08-06T18:09:00.298Z,6.20
2017-08-06T18:11:28.035Z,2.60
2017-08-06T18:13:56.392Z,3.27
2017-08-06T18:16:24.762Z,4.73
2017-08-06T18:18:53.126Z,4.70
2017-08-06T18:21:21.355Z,2.97
2017-08-06T18:23:48.822Z,3.77
2017-08-06T18:26:17.058Z,6.03
2017-08-06T18:28:44.518Z,8.40
2017-08-06T18:31:12.985Z,8.87
2017-08-06T18:33:41.223Z,11.13
2017-08-06T18:36:08.705Z,20.17
2017-08-06T18:38:36.210Z,29.07
2017-08-06T18:41:03.678Z,35.77
2017-08-06T18:43:31.939Z,15.07
2017-08-06T18:46:00.402Z,12.97
2017-08-06T18:48:28.667Z,15.10
2017-08-06T18:50:56.181Z,7.30
2017-08-06T18:53:23.794Z,6.17
2017-08-06T18:55:51.294Z,2.77
2017-08-06T18:58:19.555Z,4.40
2017-08-06T19:00:47.818Z,4.43
2017-08-06T19:03:15.286Z,4.83
2017-08-06T19:05:42.778Z,3.60
2017-08-06T19:08:10.339Z,3.50
2017-08-06T19:10:38.594Z,7.83
2017-08-06T19:13:06.195Z,5.30
2017-08-06T19:15:34.434Z,6.73
2017-08-06T19:18:01.902Z,6.07
2017-08-06T19:20:30.342Z,3.77
2017-08-06T19:22:57.901Z,3.57
2017-08-06T19:25:26.187Z,7.37
2017-08-06T19:27:53.911Z,3.80
2017-08-06T19:30:22.142Z,4.10
2017-08-06T19:32:49.602Z,4.90
2017-08-06T19:35:17.974Z,2.70
2017-08-06T19:37:46.205Z,3.33
2017-08-06T19:40:13.691Z,3.37
2017-08-06T19:42:41.174Z,3.30
2017-08-06T19:45:08.638Z,6.70
2017-08-06T19:47:37.126Z,3.87
2017-08-06T19:50:05.402Z,2.63
2017-08-06T19:52:32.930Z,5.10
2017-08-06T19:55:01.294Z,5.43
2017-08-06T19:57:29.518Z,3.93
2017-08-06T19:59:56.990Z,3.50
2017-08-06T20:02:25.458Z,3.13
2017-08-06T20:04:53.682Z,3.00
2017-08-06T20:07:21.161Z,4.13
2017-08-06T20:09:49.512Z,3.63
2017-08-06T20:12:17.778Z,3.57
2017-08-06T20:14:46.042Z,10.00
2017-08-06T20:17:14.434Z,3.03
2017-08-06T20:19:41.897Z,4.93
2017-08-06T20:22:09.354Z,3.93
2017-08-06T20:24:36.854Z,4.13
2017-08-06T20:27:04.323Z,4.23
2017-08-06T20:29:31.783Z,6.43
2017-08-06T20:31:59.342Z,3.97
2017-08-06T20:34:27.621Z,3.57
2017-08-06T20:36:56.019Z,3.33
2017-08-06T20:39:23.523Z,5.83
2017-08-06T20:41:51.754Z,3.10
2017-08-06T20:44:19.259Z,3.40
2017-08-06T20:46:46.762Z,4.93
2017-08-06T20:49:15.021Z,4.13
2017-08-06T20:51:43.300Z,4.70
2017-08-06T20:54:10.767Z,8.07
2017-08-06T20:56:38.225Z,7.60
2017-08-06T20:59:05.710Z,5.73
2017-08-06T21:01:33.969Z,3.80
2017-08-06T21:04:02.235Z,7.63
2017-08-06T21:06:30.659Z,3.97
2017-08-06T21:08:58.122Z,7.10
2017-08-06T21:11:25.613Z,4.60
2017-08-06T21:13:53.142Z,4.87
2017-08-06T21:16:21.411Z,5.73
2017-08-06T21:18:48.946Z,5.77
2017-08-06T21:21:17.302Z,5.70
2017-08-06T21:23:45.575Z,3.50
2017-08-06T21:26:13.043Z,6.30
2017-08-06T21:28:40.678Z,4.53
2017-08-06T21:31:08.139Z,4.33
2017-08-06T21:33:35.659Z,4.23
2017-08-06T21:36:03.297Z,5.47
2017-08-06T21:38:30.834Z,4.90
2017-08-06T21:40:58.390Z,4.00
2017-08-06T21:43:26.120Z,4.20
2017-08-06T21:45:54.351Z,4.37
2017-08-06T21:48:21.822Z,6.40
2017-08-06T21:50:50.082Z,9.03
2017-08-06T21:53:18.347Z,4.60
2017-08-06T21:55:46.802Z,4.80
2017-08-06T21:58:15.039Z,4.73
2017-08-06T22:00:42.606Z,6.10
2017-08-06T22:03:10.983Z,7.53
2017-08-06T22:05:38.518Z,5.30
2017-08-06T22:08:06.752Z,4.80
2017-08-06T22:10:34.423Z,3.77
2017-08-06T22:13:01.899Z,5.17
2017-08-06T22:15:29.471Z,5.20
2017-08-06T22:17:57.215Z,4.00
2017-08-06T22:20:24.757Z,4.80
2017-08-06T22:22:52.224Z,4.20
2017-08-06T22:25:20.007Z,4.50
2017-08-06T22:27:47.482Z,4.00
2017-08-06T22:30:15.742Z,7.53
2017-08-06T22:32:44.005Z,5.23
2017-08-06T22:35:12.252Z,5.20
2017-08-06T22:37:40.527Z,4.77
2017-08-06T22:40:08.986Z,4.60
2017-08-06T22:42:37.220Z,5.37
2017-08-06T22:45:04.687Z,4.80
2017-08-06T22:47:32.961Z,5.20
2017-08-06T22:50:00.502Z,5.77
2017-08-06T22:52:28.046Z,4.43
2017-08-06T22:54:55.685Z,4.57
2017-08-06T22:57:24.144Z,5.07
2017-08-06T22:59:52.379Z,6.27
2017-08-06T23:02:19.858Z,4.93
2017-08-06T23:04:48.314Z,5.10
2017-08-06T23:07:16.552Z,5.33
2017-08-06T23:09:44.118Z,6.80
2017-08-06T23:12:11.803Z,6.20
2017-08-06T23:14:39.278Z,5.20
2017-08-06T23:17:06.744Z,5.40
2017-08-06T23:19:34.226Z,6.50
2017-08-06T23:22:02.513Z,6.13
2017-08-06T23:24:29.995Z,6.27
2017-08-06T23:26:57.579Z,5.97
2017-08-06T23:29:25.079Z,5.40
2017-08-06T23:31:52.558Z,6.87
2017-08-06T23:34:20.798Z,7.73
2017-08-06T23:36:48.285Z,5.90
2017-08-06T23:39:15.750Z,7.60
2017-08-06T23:41:43.346Z,8.53
2017-08-06T23:44:11.578Z,6.23
2017-08-06T23:46:39.142Z,7.63
2017-08-06T23:49:07.408Z,6.60
2017-08-06T23:51:35.639Z,6.00
2017-08-06T23:54:03.156Z,6.63
2017-08-06T23:56:30.656Z,6.57
2017-08-06T23:58:58.922Z,6.70
